Time;durP1;ratioP1;P1;durP2;ratioP2;P2;SDS_P1;SDS_P2;PMS_P1;PMS_P2;Temp;Humidity;BMP_temperature;BMP_pressure;BME280_temperature;BME280_humidity;BME280_pressure;Samples;Min_cycle;Max_cycle;Signal;HPM_P1;HPM_P2
2022/01/11 00:01:31;;;;;;;;;23.50;18.25;;;;;4.67;74.56;102618.56;5078130;27;46059;-46
2022/01/11 00:03:56;;;;;;;;;23.75;14.75;;;;;4.63;75.23;102612.53;5078062;27;45280;-45
2022/01/11 00:06:41;;;;;;;;;21.75;13.00;;;;;4.58;75.41;102614.50;5078280;27;45780;-46
2022/01/11 00:09:18;;;;;;;;;26.00;20.00;;;;;4.61;74.52;102609.13;5078415;27;45501;-46
2022/01/11 00:11:43;;;;;;;;;24.50;16.50;;;;;4.54;74.52;102606.78;5078052;27;46367;-45
2022/01/11 00:14:09;;;;;;;;;19.50;18.50;;;;;4.52;75.48;102606.88;5078029;27;45203;-46
2022/01/11 00:16:34;;;;;;;;;25.25;17.00;;;;;4.58;74.80;102624.19;5078172;27;45237;-48
2022/01/11 00:19:05;;;;;;;;;22.25;15.25;;;;;4.60;75.41;102615.31;5078517;27;45503;-47
2022/01/11 00:21:31;;;;;;;;;28.75;18.00;;;;;4.51;74.80;102607.78;5077906;27;47157;-47
2022/01/11 00:26:40;;;;;;;;;20.25;14.50;;;;;4.52;74.30;102624.47;5078127;28;45358;-44
2022/01/11 00:29:05;;;;;;;;;26.00;19.25;;;;;4.51;74.79;102623.59;5077915;27;45286;-45
2022/01/11 00:31:31;;;;;;;;;32.25;17.50;;;;;4.49;75.03;102607.84;5077673;27;46097;-46
2022/01/11 00:33:56;;;;;;;;;23.50;18.25;;;;;4.47;74.12;102611.47;5077992;27;45350;-46
2022/01/11 00:36:29;;;;;;;;;19.75;15.25;;;;;4.42;75.34;102616.03;5077850;27;45329;-48
2022/01/11 00:38:54;;;;;;;;;24.00;22.00;;;;;4.39;75.01;102613.56;5077607;27;45530;-45
2022/01/11 00:41:20;;;;;;;;;27.25;18.50;;;;;4.37;74.72;102613.59;5077533;27;45706;-46
2022/01/11 00:43:45;;;;;;;;;23.00;16.00;;;;;4.37;75.28;102610.97;5077691;27;45307;-45
2022/01/11 00:46:11;;;;;;;;;24.25;18.00;;;;;4.36;75.32;102608.41;5077923;27;45624;-44
2022/01/11 00:48:39;;;;;;;;;34.25;22.00;;;;;4.30;75.78;102605.97;5078001;27;45331;-43
2022/01/11 00:51:05;;;;;;;;;25.50;22.00;;;;;4.34;75.35;102619.00;5077523;27;47047;-45
2022/01/11 00:53:31;;;;;;;;;35.50;21.25;;;;;4.33;75.88;102616.41;5077725;27;45201;-45
2022/01/11 00:55:56;;;;;;;;;30.00;24.75;;;;;4.33;75.34;102614.63;5077679;27;45276;-46
2022/01/11 00:58:22;;;;;;;;;25.50;21.00;;;;;4.23;75.81;102594.84;5077206;27;45370;-43
2022/01/11 01:00:48;;;;;;;;;34.75;31.75;;;;;4.37;75.58;102612.75;5077244;27;45259;-45
2022/01/11 01:03:14;;;;;;;;;36.00;27.25;;;;;4.36;76.05;102621.56;5077533;27;45397;-44
2022/01/11 01:05:40;;;;;;;;;34.25;27.00;;;;;4.34;76.20;102613.75;5077477;27;45459;-44
2022/01/11 01:08:06;;;;;;;;;34.50;27.50;;;;;4.34;75.36;102612.84;5077723;28;45407;-47
2022/01/11 01:10:37;;;;;;;;;25.00;17.00;;;;;4.34;76.01;102610.22;5077240;27;46120;-44
2022/01/11 01:13:09;;;;;;;;;36.50;23.25;;;;;4.36;75.21;102627.69;5077177;27;45257;-46
2022/01/11 01:15:35;;;;;;;;;30.25;26.25;;;;;4.35;75.42;102631.25;5077199;27;45375;-45
2022/01/11 01:18:01;;;;;;;;;38.25;23.00;;;;;4.40;75.25;102633.69;5077471;27;45216;-45
2022/01/11 01:20:27;;;;;;;;;38.50;29.25;;;;;4.35;75.65;102638.31;5077135;27;45272;-50
2022/01/11 01:22:52;;;;;;;;;44.75;34.75;;;;;4.32;75.41;102636.63;5076835;27;45391;-46
2022/01/11 01:25:23;;;;;;;;;40.25;29.75;;;;;4.31;76.44;102640.19;5077182;27;45275;-48
2022/01/11 01:27:50;;;;;;;;;52.25;37.75;;;;;4.34;76.51;102633.94;5077351;28;45342;-46
2022/01/11 01:30:17;;;;;;;;;47.25;31.00;;;;;4.30;76.12;102621.78;5076876;27;45263;-48
2022/01/11 01:32:43;;;;;;;;;42.00;32.00;;;;;4.39;75.23;102629.38;5077094;27;45232;-48
2022/01/11 01:35:09;;;;;;;;;42.25;29.25;;;;;4.35;76.09;102622.50;5077022;27;45436;-43
2022/01/11 01:37:34;;;;;;;;;38.00;29.75;;;;;4.39;75.26;102632.00;5077225;27;45450;-46
2022/01/11 01:40:00;;;;;;;;;33.00;27.25;;;;;4.37;75.60;102625.91;5076702;27;47185;-45
2022/01/11 01:42:29;;;;;;;;;44.00;34.25;;;;;4.39;75.26;102638.13;5076742;27;45286;-46
2022/01/11 01:44:54;;;;;;;;;42.75;31.50;;;;;4.32;74.95;102641.06;5077174;27;45219;-44
2022/01/11 01:47:20;;;;;;;;;36.25;33.75;;;;;4.30;75.74;102641.13;5077037;27;45222;-44
2022/01/11 01:49:45;;;;;;;;;40.75;32.00;;;;;4.25;75.13;102646.53;5077094;27;45298;-46
2022/01/11 01:52:12;;;;;;;;;39.25;25.25;;;;;4.27;75.99;102656.19;5076660;27;45311;-45
2022/01/11 01:54:37;;;;;;;;;47.25;35.75;;;;;4.29;75.90;102663.09;5076709;27;45345;-45
2022/01/11 01:57:03;;;;;;;;;41.00;30.00;;;;;4.30;75.74;102661.31;5076979;27;45254;-45
2022/01/11 01:59:29;;;;;;;;;41.50;35.25;;;;;4.25;75.95;102657.06;5076500;27;45419;-44
2022/01/11 02:01:55;;;;;;;;;56.75;28.25;;;;;4.25;75.96;102659.72;5076528;27;45316;-43
2022/01/11 02:04:20;;;;;;;;;43.50;34.75;;;;;4.27;75.65;102659.69;5076708;27;45322;-46
2022/01/11 02:06:47;;;;;;;;;33.25;29.25;;;;;4.32;74.93;102667.41;5076920;27;45447;-44
2022/01/11 02:09:15;;;;;;;;;25.50;22.75;;;;;4.37;75.14;102665.44;5076900;27;46290;-46
2022/01/11 02:11:41;;;;;;;;;42.00;31.00;;;;;4.41;74.76;102670.53;5079910;28;45514;-45
2022/01/11 02:14:08;;;;;;;;;37.50;26.75;;;;;4.41;74.39;102670.53;5080188;27;45194;-47
2022/01/11 02:16:33;;;;;;;;;37.50;27.00;;;;;4.45;75.23;102681.81;5080255;27;45280;-44
2022/01/11 02:18:59;;;;;;;;;33.00;25.00;;;;;4.45;75.15;102673.91;5079851;27;45575;-44
2022/01/11 02:21:24;;;;;;;;;29.75;21.00;;;;;4.39;74.26;102674.16;5079953;27;45374;-48
2022/01/11 02:23:50;;;;;;;;;24.00;21.50;;;;;4.31;74.49;102678.88;5079899;27;45492;-44
2022/01/11 02:26:16;;;;;;;;;34.00;21.25;;;;;4.35;74.59;102677.81;5080065;27;45302;-43
2022/01/11 02:28:42;;;;;;;;;30.50;22.50;;;;;4.38;73.87;102680.31;5079886;27;46351;-45
2022/01/11 02:31:12;;;;;;;;;31.25;25.00;;;;;4.36;74.68;102676.91;5079577;27;45533;-45
2022/01/11 02:33:43;;;;;;;;;31.50;24.25;;;;;4.29;73.80;102681.53;5079901;27;45401;-43
2022/01/11 02:36:12;;;;;;;;;24.25;20.00;;;;;4.25;74.32;102685.19;5079889;28;45425;-48
2022/01/11 02:38:38;;;;;;;;;30.00;23.75;;;;;4.17;74.65;102666.19;5079214;27;46061;-50
2022/01/11 02:41:04;;;;;;;;;30.75;22.50;;;;;4.20;74.21;102674.00;5079510;27;45506;-43
2022/01/11 02:43:30;;;;;;;;;29.00;23.50;;;;;4.17;73.89;102684.63;5079512;27;45355;-44
2022/01/11 02:45:58;;;;;;;;;40.25;26.00;;;;;4.15;73.97;102674.16;5079645;28;45332;-45
2022/01/11 02:48:24;;;;;;;;;27.00;19.00;;;;;4.15;74.09;102682.06;5079664;28;45249;-44
2022/01/11 02:50:50;;;;;;;;;28.50;24.50;;;;;3.97;74.41;102652.03;5079467;28;45230;-44
2022/01/11 02:53:17;;;;;;;;;33.00;19.75;;;;;4.09;74.26;102668.25;5079487;27;45334;-46
2022/01/11 02:55:43;;;;;;;;;26.75;17.00;;;;;4.15;73.72;102673.31;5079352;27;45528;-45
2022/01/11 02:58:13;;;;;;;;;22.75;18.50;;;;;4.16;73.84;102667.97;5079026;27;46243;-45
2022/01/11 03:00:40;;;;;;;;;20.25;17.25;;;;;4.17;73.80;102682.00;5079249;27;45373;-45
2022/01/11 03:03:11;;;;;;;;;27.25;22.25;;;;;4.14;74.03;102677.72;5079068;27;45302;-45
2022/01/11 03:05:37;;;;;;;;;31.50;18.25;;;;;4.11;74.35;102680.47;5079206;27;45479;-46
2022/01/11 03:08:02;;;;;;;;;24.25;15.00;;;;;4.07;74.42;102670.97;5079149;27;45991;-45
2022/01/11 03:10:37;;;;;;;;;30.50;24.50;;;;;4.11;74.37;102675.19;5078976;27;45280;-44
2022/01/11 03:13:05;;;;;;;;;34.75;25.00;;;;;4.12;73.97;102682.16;5079038;27;45384;-46
2022/01/11 03:15:31;;;;;;;;;31.00;25.25;;;;;4.02;73.77;102672.91;5079288;27;45181;-44
2022/01/11 03:17:56;;;;;;;;;29.75;18.50;;;;;4.10;73.93;102686.66;5077512;28;46139;-45
2022/01/11 03:20:21;;;;;;;;;28.25;18.75;;;;;4.11;74.16;102693.63;5078776;27;45333;-46
2022/01/11 03:22:47;;;;;;;;;25.25;20.00;;;;;4.11;74.85;102696.25;5078080;27;45199;-45
2022/01/11 03:25:13;;;;;;;;;29.00;26.00;;;;;4.09;73.91;102700.75;5079023;27;45377;-45
2022/01/11 03:27:41;;;;;;;;;27.00;20.25;;;;;4.04;74.12;102705.31;5078750;28;46037;-46
2022/01/11 03:30:08;;;;;;;;;30.00;18.00;;;;;3.95;74.16;102698.59;5078811;27;45426;-48
2022/01/11 03:32:34;;;;;;;;;36.75;24.25;;;;;3.89;74.57;102698.84;5078824;27;45309;-46
2022/01/11 03:34:59;;;;;;;;;34.75;27.50;;;;;3.97;74.31;102703.81;5079197;27;45333;-44
2022/01/11 03:37:25;;;;;;;;;31.75;25.25;;;;;3.90;74.17;102687.38;5078403;27;46158;-45
2022/01/11 03:39:51;;;;;;;;;26.00;22.50;;;;;3.93;74.70;102689.06;5078524;27;45383;-44
2022/01/11 03:42:16;;;;;;;;;29.00;21.75;;;;;3.96;74.58;102694.19;5078597;27;45410;-45
2022/01/11 03:44:41;;;;;;;;;24.50;20.00;;;;;3.88;74.92;102685.75;5078840;28;45418;-44
2022/01/11 03:47:07;;;;;;;;;29.50;23.75;;;;;4.02;74.26;102712.41;5078417;27;46087;-49
2022/01/11 03:49:33;;;;;;;;;26.00;22.50;;;;;4.04;75.21;102705.31;5078405;27;45241;-45
2022/01/11 03:51:58;;;;;;;;;29.50;22.75;;;;;4.08;74.91;102708.69;5078666;27;45284;-45
2022/01/11 03:54:27;;;;;;;;;30.75;21.25;;;;;4.05;74.81;102711.47;5078746;27;45502;-45
2022/01/11 03:56:53;;;;;;;;;27.00;18.75;;;;;3.94;74.20;102701.31;5078191;27;46457;-46
2022/01/11 03:59:19;;;;;;;;;38.75;28.75;;;;;4.07;75.01;102722.78;5077102;28;45441;-43
2022/01/11 04:01:45;;;;;;;;;35.00;23.50;;;;;4.07;75.08;102728.03;5078307;27;45385;-43
2022/01/11 04:04:11;;;;;;;;;24.00;21.50;;;;;4.03;74.36;102710.63;5078702;27;45212;-45
2022/01/11 04:06:38;;;;;;;;;23.25;21.00;;;;;4.00;74.05;102722.13;5078129;27;45295;-44
2022/01/11 04:09:05;;;;;;;;;40.50;30.00;;;;;3.90;74.65;102715.50;5078262;27;45435;-44
2022/01/11 04:11:31;;;;;;;;;21.50;18.75;;;;;3.84;74.41;102713.09;5078245;27;45397;-44
2022/01/11 04:13:57;;;;;;;;;37.75;33.00;;;;;3.80;74.78;102711.47;5077055;28;45368;-43
2022/01/11 04:16:22;;;;;;;;;34.25;27.25;;;;;3.72;74.99;102694.19;5078254;28;45339;-45
2022/01/11 04:18:48;;;;;;;;;32.25;21.50;;;;;3.77;74.94;102701.06;5078048;27;45343;-45
2022/01/11 04:21:14;;;;;;;;;34.25;22.50;;;;;3.78;74.88;102708.88;5078318;27;45628;-44
2022/01/11 04:23:39;;;;;;;;;34.50;21.75;;;;;3.79;74.80;102717.63;5078414;27;45380;-45
2022/01/11 04:26:05;;;;;;;;;25.75;18.25;;;;;3.83;74.40;102721.88;5077547;27;46294;-45
2022/01/11 04:28:31;;;;;;;;;31.75;23.25;;;;;3.82;75.07;102707.84;5078089;27;45295;-44
2022/01/11 04:31:00;;;;;;;;;46.25;28.00;;;;;3.80;75.03;102703.59;5077966;27;45269;-44
2022/01/11 04:33:27;;;;;;;;;23.00;14.50;;;;;3.80;74.17;102714.97;5076896;27;45453;-45
2022/01/11 04:35:53;;;;;;;;;33.00;23.00;;;;;3.75;75.08;102712.50;5077470;27;45314;-44
2022/01/11 04:38:24;;;;;;;;;33.25;22.75;;;;;3.70;74.62;102710.91;5077571;27;45382;-43
2022/01/11 04:40:50;;;;;;;;;24.25;21.50;;;;;3.71;75.04;102710.03;5077809;27;45378;-44
2022/01/11 04:43:15;;;;;;;;;28.75;22.75;;;;;3.72;74.45;102712.59;5078022;28;45309;-48
2022/01/11 04:45:41;;;;;;;;;28.25;18.00;;;;;3.74;75.11;102730.97;5077438;27;46499;-44
2022/01/11 04:48:07;;;;;;;;;25.25;21.00;;;;;3.66;74.38;102711.94;5077760;27;45287;-44
2022/01/11 04:50:33;;;;;;;;;36.25;25.25;;;;;3.78;73.98;102727.31;5077703;27;45405;-45
2022/01/11 04:52:59;;;;;;;;;30.75;23.00;;;;;3.81;73.71;102718.47;5077847;27;45382;-48
2022/01/11 04:55:25;;;;;;;;;28.75;28.25;;;;;3.79;73.88;102722.91;5077539;27;46109;-44
2022/01/11 04:57:51;;;;;;;;;33.25;19.25;;;;;3.74;74.09;102726.56;5077276;27;45390;-45
2022/01/11 05:00:19;;;;;;;;;26.50;20.25;;;;;3.74;74.18;102737.09;5077699;27;45280;-44
2022/01/11 05:02:44;;;;;;;;;24.25;17.75;;;;;3.71;74.87;102729.31;5076123;28;45576;-45
2022/01/11 05:05:10;;;;;;;;;31.50;24.75;;;;;3.68;73.94;102732.03;5077276;27;46360;-44
2022/01/11 05:07:35;;;;;;;;;35.25;25.50;;;;;3.72;73.83;102744.19;5077124;27;45440;-46
2022/01/11 05:10:01;;;;;;;;;31.75;26.00;;;;;3.75;73.59;102752.00;5077435;27;45348;-45
2022/01/11 05:12:26;;;;;;;;;31.50;25.25;;;;;3.75;73.96;102753.75;5077332;27;45577;-43
2022/01/11 05:14:51;;;;;;;;;32.50;22.75;;;;;3.67;74.20;102729.47;5077251;27;45266;-44
2022/01/11 05:17:17;;;;;;;;;35.75;26.25;;;;;3.65;74.30;102726.03;5077148;27;45326;-44
2022/01/11 05:19:43;;;;;;;;;24.75;19.25;;;;;3.69;74.39;102743.44;5077453;27;45385;-44
2022/01/11 05:22:08;;;;;;;;;34.50;20.75;;;;;3.71;73.70;102742.47;5077444;27;45512;-44
2022/01/11 05:24:34;;;;;;;;;31.75;25.25;;;;;3.70;73.35;102746.00;5077190;28;46123;-44
2022/01/11 05:26:59;;;;;;;;;33.75;22.00;;;;;3.68;73.25;102750.47;5077024;27;45377;-43
2022/01/11 05:29:25;;;;;;;;;24.50;22.00;;;;;3.63;74.03;102744.50;5077180;27;45685;-44
2022/01/11 05:31:50;;;;;;;;;35.00;23.75;;;;;3.63;73.03;102741.88;5077577;27;45228;-44
2022/01/11 05:34:16;;;;;;;;;32.25;24.75;;;;;3.64;73.83;102743.59;5077057;28;46004;-44
2022/01/11 05:36:41;;;;;;;;;34.00;23.75;;;;;3.66;73.41;102748.78;5077214;27;45346;-44
2022/01/11 05:39:06;;;;;;;;;32.25;25.75;;;;;3.50;72.83;102732.69;5076949;27;45873;-44
2022/01/11 05:41:32;;;;;;;;;31.00;23.00;;;;;3.64;73.70;102766.44;5076982;27;45170;-44
2022/01/11 05:43:58;;;;;;;;;24.75;15.00;;;;;3.63;73.04;102775.25;5076983;27;46143;-47
2022/01/11 05:46:23;;;;;;;;;33.75;29.00;;;;;3.63;73.48;102778.72;5080396;27;45315;-47
2022/01/11 05:48:49;;;;;;;;;28.00;18.75;;;;;3.63;73.70;102781.34;5080589;27;45429;-47
2022/01/11 05:51:15;;;;;;;;;23.75;19.50;;;;;3.63;72.46;102781.34;5080632;27;45532;-45
2022/01/11 05:53:41;;;;;;;;;39.00;24.25;;;;;3.57;73.13;102772.78;5080169;27;46186;-45
2022/01/11 05:56:07;;;;;;;;;30.00;22.25;;;;;3.51;73.17;102765.97;5080323;27;45391;-47
2022/01/11 05:58:33;;;;;;;;;36.50;26.50;;;;;3.45;72.62;102777.53;5080021;27;45467;-47
2022/01/11 06:00:58;;;;;;;;;31.00;21.75;;;;;3.35;73.24;102776.16;5080396;28;45249;-45
2022/01/11 06:03:24;;;;;;;;;33.00;24.75;;;;;3.23;72.71;102758.13;5079868;27;46307;-46
2022/01/11 06:05:49;;;;;;;;;31.25;22.75;;;;;3.31;72.90;102777.16;5079958;27;45241;-48
2022/01/11 06:08:16;;;;;;;;;37.50;27.25;;;;;3.30;73.32;102793.00;5080307;28;45218;-45
2022/01/11 06:10:42;;;;;;;;;49.25;31.75;;;;;3.16;73.47;102786.41;5080275;27;45324;-45
2022/01/11 06:13:08;;;;;;;;;42.75;36.50;;;;;3.16;73.02;102804.81;5080069;27;47003;-46
2022/01/11 06:15:34;;;;;;;;;47.75;37.25;;;;;3.06;73.20;102798.13;5079903;27;45256;-47
2022/01/11 06:17:59;;;;;;;;;34.75;26.25;;;;;3.18;73.58;102813.50;5078660;28;45384;-46
2022/01/11 06:20:25;;;;;;;;;39.00;32.75;;;;;3.12;73.36;102811.09;5080274;27;45334;-45
2022/01/11 06:22:51;;;;;;;;;45.00;34.25;;;;;3.04;73.14;102820.97;5079500;27;46492;-44
2022/01/11 06:25:16;;;;;;;;;38.75;35.00;;;;;3.01;74.20;102813.19;5079794;27;45338;-45
2022/01/11 06:27:42;;;;;;;;;42.50;33.25;;;;;3.03;73.96;102803.47;5079706;27;45409;-50
2022/01/11 06:30:09;;;;;;;;;35.00;26.75;;;;;3.08;73.14;102819.97;5080237;27;45361;-48
2022/01/11 06:32:36;;;;;;;;;42.25;28.50;;;;;3.03;73.61;102818.38;5080056;27;46220;-46
2022/01/11 06:35:02;;;;;;;;;42.25;32.25;;;;;2.93;73.87;102810.78;5079601;27;45257;-49
2022/01/11 06:37:28;;;;;;;;;43.00;33.50;;;;;2.90;73.98;102815.25;5079890;27;45464;-47
2022/01/11 06:39:54;;;;;;;;;49.75;32.75;;;;;2.84;74.08;102813.69;5079830;27;45220;-46
2022/01/11 06:42:19;;;;;;;;;47.25;31.75;;;;;2.76;74.11;102802.53;5079285;27;45465;-46
2022/01/11 06:44:45;;;;;;;;;40.00;33.00;;;;;2.89;74.37;102824.06;5079727;27;45251;-48
2022/01/11 06:47:11;;;;;;;;;42.00;32.25;;;;;2.86;73.55;102827.63;5080299;27;45504;-47
2022/01/11 06:49:36;;;;;;;;;46.75;34.50;;;;;2.84;73.48;102829.47;5081037;27;45330;-44
2022/01/11 06:52:02;;;;;;;;;35.00;27.00;;;;;2.85;74.23;102839.06;5079873;27;46233;-42
2022/01/11 06:54:28;;;;;;;;;46.75;36.00;;;;;2.89;73.58;102837.22;5079721;27;45429;-44
2022/01/11 06:56:53;;;;;;;;;49.50;36.25;;;;;2.85;73.47;102839.06;5078422;27;45327;-47
2022/01/11 06:59:19;;;;;;;;;44.50;33.00;;;;;2.87;74.18;102832.00;5079437;27;45497;-45
2022/01/11 07:01:45;;;;;;;;;53.25;39.00;;;;;2.91;74.00;102828.38;5078896;27;46069;-45
2022/01/11 07:04:10;;;;;;;;;44.50;29.75;;;;;2.99;73.60;102817.59;5079280;27;45428;-49
2022/01/11 07:06:35;;;;;;;;;28.50;22.25;;;;;3.00;73.32;102821.97;5079542;27;45148;-46
2022/01/11 07:09:02;;;;;;;;;9.25;6.25;;;;;2.99;73.47;102834.28;5079662;27;45559;-49
2022/01/11 07:11:27;;;;;;;;;40.00;28.50;;;;;2.95;73.38;102830.00;5079219;27;47018;-45
2022/01/11 07:13:52;;;;;;;;;54.00;35.25;;;;;2.88;74.02;102831.09;5078923;27;45392;-45
2022/01/11 07:16:18;;;;;;;;;28.75;26.75;;;;;2.80;73.71;102830.47;5079273;27;45378;-47
2022/01/11 07:18:44;;;;;;;;;41.50;34.25;;;;;2.84;74.39;102831.22;5079150;27;45494;-47
2022/01/11 07:21:10;;;;;;;;;47.50;34.25;;;;;2.73;74.27;102816.63;5079056;27;45381;-47
2022/01/11 07:23:35;;;;;;;;;39.75;30.75;;;;;2.83;74.46;102827.75;5078886;27;45400;-46
2022/01/11 07:26:02;;;;;;;;;46.50;40.25;;;;;2.84;73.78;102831.22;5078817;27;45350;-44
2022/01/11 07:28:29;;;;;;;;;40.25;37.50;;;;;2.87;74.42;102841.66;5079164;27;45452;-43
2022/01/11 07:30:54;;;;;;;;;50.50;38.25;;;;;2.88;74.18;102853.91;5078668;27;47043;-44
2022/01/11 07:33:20;;;;;;;;;50.00;39.50;;;;;2.86;74.26;102853.91;5078944;28;45232;-44
2022/01/11 07:35:45;;;;;;;;;50.50;35.50;;;;;2.89;73.75;102871.38;5079081;27;45260;-43
2022/01/11 07:38:11;;;;;;;;;51.00;32.50;;;;;2.91;74.20;102869.59;5078517;27;45342;-45
2022/01/11 07:40:37;;;;;;;;;38.50;27.25;;;;;2.87;74.26;102870.59;5077966;27;46369;-46
2022/01/11 07:43:02;;;;;;;;;36.00;28.25;;;;;2.92;74.08;102882.69;5078345;27;45247;-47
2022/01/11 07:45:28;;;;;;;;;47.50;34.00;;;;;2.94;74.04;102888.72;5077776;27;45399;-47
2022/01/11 07:47:53;;;;;;;;;50.75;36.50;;;;;2.95;73.58;102885.22;5078280;28;45228;-46
2022/01/11 07:50:19;;;;;;;;;59.25;36.75;;;;;2.97;73.29;102883.41;5077638;27;45485;-47
2022/01/11 07:52:44;;;;;;;;;48.50;37.50;;;;;2.98;73.71;102885.09;5077926;27;45409;-45
2022/01/11 07:55:10;;;;;;;;;47.25;37.75;;;;;3.03;74.27;102884.97;5077582;27;45534;-46
2022/01/11 07:57:35;;;;;;;;;58.00;41.25;;;;;2.88;73.22;102857.38;5078030;28;45370;-44
2022/01/11 08:00:03;;;;;;;;;65.00;44.25;;;;;3.04;73.44;102891.97;5077710;28;46380;-43
2022/01/11 08:02:28;;;;;;;;;62.50;44.50;;;;;3.03;73.89;102879.72;5077587;28;45464;-45
2022/01/11 08:04:54;;;;;;;;;67.25;40.50;;;;;3.03;73.99;102882.34;5078236;27;45371;-45
2022/01/11 08:07:20;;;;;;;;;65.75;43.75;;;;;3.03;74.16;102884.97;5076341;28;45288;-45
2022/01/11 08:09:45;;;;;;;;;58.25;45.00;;;;;2.98;73.86;102893.00;5077370;27;45415;-47
2022/01/11 08:12:11;;;;;;;;;58.00;37.00;;;;;2.99;73.70;102894.75;5077408;27;45320;-46
2022/01/11 08:14:36;;;;;;;;;56.25;46.75;;;;;2.98;73.56;102895.63;5110000;27;45472;-44
2022/01/11 08:17:02;;;;;;;;;57.75;43.75;;;;;2.97;73.53;102895.69;5077609;28;45443;-45
2022/01/11 08:19:27;;;;;;;;;56.25;37.00;;;;;2.99;74.23;102904.38;5076549;28;46625;-44
2022/01/11 08:21:54;;;;;;;;;54.50;39.50;;;;;3.00;73.94;102921.91;5077315;27;45453;-45
2022/01/11 08:24:23;;;;;;;;;45.00;42.00;;;;;3.03;74.18;102916.53;5075977;28;45461;-43
2022/01/11 08:26:53;;;;;;;;;54.75;43.25;;;;;3.05;74.00;102914.72;5077580;27;45473;-42
2022/01/11 08:29:20;;;;;;;;;27.50;15.75;;;;;3.01;73.68;102899.94;5077108;27;47087;-47
2022/01/11 08:31:46;;;;;;;;;42.75;30.25;;;;;3.11;73.36;102925.06;5076887;27;46028;-46
2022/01/11 08:34:14;;;;;;;;;41.75;29.75;;;;;3.12;73.91;102928.53;5077289;28;45330;-47
2022/01/11 08:36:43;;;;;;;;;51.25;40.50;;;;;3.16;73.63;102931.06;5077280;27;45384;-46
2022/01/11 08:39:10;;;;;;;;;48.50;37.75;;;;;3.15;73.44;102925.81;5076083;27;46562;-46
2022/01/11 08:41:36;;;;;;;;;45.50;34.00;;;;;3.13;74.00;102925.88;5076766;27;45510;-45
2022/01/11 08:44:01;;;;;;;;;50.50;40.75;;;;;3.17;73.18;102927.53;5076629;27;45397;-48
2022/01/11 08:46:27;;;;;;;;;53.25;37.75;;;;;3.11;73.55;102911.91;5076809;28;45467;-43
2022/01/11 08:48:52;;;;;;;;;64.75;46.00;;;;;3.18;73.49;102923.13;5075650;28;46081;-45
2022/01/11 08:51:18;;;;;;;;;62.75;44.25;;;;;3.19;73.20;102920.44;5076546;28;45458;-47
2022/01/11 08:53:44;;;;;;;;;62.25;47.00;;;;;3.19;73.23;102930.94;5075511;28;45349;-49
2022/01/11 08:56:11;;;;;;;;;72.00;44.50;;;;;3.16;73.74;102920.53;5077016;28;45375;-46
2022/01/11 08:58:36;;;;;;;;;55.25;44.75;;;;;3.23;73.73;102923.84;5076123;28;46178;-48
2022/01/11 09:01:02;;;;;;;;;69.50;49.25;;;;;3.27;73.52;102925.47;5076771;28;45397;-47
2022/01/11 09:03:28;;;;;;;;;58.50;45.50;;;;;3.29;72.77;102928.94;5076466;27;45227;-46
2022/01/11 09:05:53;;;;;;;;;72.50;49.00;;;;;3.28;73.79;102926.31;5076892;28;45425;-44
2022/01/11 09:08:20;;;;;;;;;58.50;37.50;;;;;3.30;73.71;102937.69;5076644;28;45992;-49
2022/01/11 09:10:45;;;;;;;;;51.75;42.50;;;;;3.32;72.83;102941.09;5076258;27;45548;-46
2022/01/11 09:13:11;;;;;;;;;49.25;35.50;;;;;3.30;72.54;102943.78;5076690;28;45341;-47
2022/01/11 09:15:36;;;;;;;;;61.25;43.75;;;;;3.29;73.04;102941.19;5076668;27;45520;-47
2022/01/11 09:18:02;;;;;;;;;61.50;39.25;;;;;3.33;73.42;102942.81;5076208;28;46318;-44
2022/01/11 09:20:28;;;;;;;;;62.25;43.50;;;;;3.36;72.72;102946.22;5078947;28;45544;-45
2022/01/11 09:22:54;;;;;;;;;65.75;45.00;;;;;3.34;72.38;102944.56;5080109;28;45412;-48
2022/01/11 09:25:20;;;;;;;;;71.00;45.75;;;;;3.35;72.69;102944.50;5080327;28;45428;-46
2022/01/11 09:27:45;;;;;;;;;69.25;48.25;;;;;3.31;72.77;102945.50;5079971;28;45997;-45
2022/01/11 09:30:13;;;;;;;;;65.25;46.25;;;;;3.34;73.10;102962.97;5112541;27;45506;-48
2022/01/11 09:32:41;;;;;;;;;59.00;45.25;;;;;3.29;72.70;102954.34;5079988;28;45497;-50
2022/01/11 09:35:10;;;;;;;;;49.25;42.50;;;;;3.30;72.56;102964.84;5080121;27;45382;-45
2022/01/11 09:37:37;;;;;;;;;62.50;47.50;;;;;3.24;72.93;102958.00;5079406;27;46309;-47
2022/01/11 09:40:05;;;;;;;;;59.00;44.75;;;;;3.33;73.08;102977.03;5079521;28;45377;-47
2022/01/11 09:42:30;;;;;;;;;66.25;44.50;;;;;3.30;73.01;102969.25;5079600;27;45493;-50
2022/01/11 09:44:58;;;;;;;;;55.00;43.75;;;;;3.36;72.75;102974.31;5078517;28;45927;-46
2022/01/11 09:47:24;;;;;;;;;70.75;45.00;;;;;3.40;73.21;102973.31;5079140;27;45472;-47
2022/01/11 09:49:49;;;;;;;;;64.50;46.25;;;;;3.40;73.07;102973.31;5079655;28;45398;-47
2022/01/11 09:52:15;;;;;;;;;53.75;40.50;;;;;3.42;72.37;102982.91;5079513;28;45308;-48
2022/01/11 09:54:45;;;;;;;;;50.50;42.25;;;;;3.44;72.97;102985.47;5079386;27;45484;-48
2022/01/11 09:57:11;;;;;;;;;44.00;34.75;;;;;3.45;72.10;102979.28;5079415;27;45365;-46
2022/01/11 09:59:37;;;;;;;;;47.25;36.75;;;;;3.47;72.36;102985.38;5079032;27;45415;-46
2022/01/11 10:02:04;;;;;;;;;55.50;39.00;;;;;3.45;72.93;102987.19;5078979;28;45539;-47
2022/01/11 10:04:32;;;;;;;;;53.25;38.50;;;;;3.45;72.62;102987.19;5079694;28;45427;-46
2022/01/11 10:07:03;;;;;;;;;56.75;37.50;;;;;3.53;72.34;102982.56;5079071;28;46397;-49
2022/01/11 10:09:32;;;;;;;;;55.00;35.75;;;;;3.59;72.93;102977.13;5111924;27;45747;-46
2022/01/11 10:12:00;;;;;;;;;49.25;39.25;;;;;3.63;72.44;102981.38;5079595;27;45328;-45
2022/01/11 10:14:32;;;;;;;;;56.00;39.25;;;;;3.65;72.92;102973.44;5079118;28;45478;-45
2022/01/11 10:17:06;;;;;;;;;56.75;44.25;;;;;3.59;72.83;102971.00;5078687;27;46183;-44
2022/01/11 10:19:32;;;;;;;;;54.50;43.00;;;;;3.68;72.75;102983.88;5078799;28;45383;-47
2022/01/11 10:22:02;;;;;;;;;54.50;44.25;;;;;3.69;72.66;102985.59;5079306;27;45400;-49
2022/01/11 10:24:35;;;;;;;;;64.75;45.50;;;;;3.73;72.75;102989.84;5079147;28;45337;-47
2022/01/11 10:27:04;;;;;;;;;47.75;35.50;;;;;3.80;72.29;102991.41;5078534;27;46002;-46
2022/01/11 10:29:41;;;;;;;;;53.75;43.25;;;;;3.81;71.89;102989.63;5078874;27;45468;-45
2022/01/11 10:32:21;;;;;;;;;67.25;44.25;;;;;3.86;72.33;102990.31;5078892;28;45799;-45
2022/01/11 10:34:52;;;;;;;;;60.25;41.25;;;;;3.89;72.00;102999.00;5078991;28;45494;-45
2022/01/11 10:37:30;;;;;;;;;50.00;32.50;;;;;3.94;71.97;102997.06;5078374;28;46119;-46
2022/01/11 10:40:13;;;;;;;;;62.50;40.25;;;;;3.94;71.81;102999.72;5078553;28;45546;-45
2022/01/11 10:42:45;;;;;;;;;53.50;44.25;;;;;3.90;71.36;102994.59;5078536;28;45404;-47
2022/01/11 10:45:22;;;;;;;;;64.25;43.25;;;;;3.96;71.50;103004.91;5078781;27;45627;-49
2022/01/11 10:47:56;;;;;;;;;47.75;39.00;;;;;4.03;70.96;103006.44;5078519;28;46478;-48
2022/01/11 10:50:30;;;;;;;;;52.50;40.25;;;;;4.15;71.12;102998.16;5078140;28;45365;-47
2022/01/11 10:53:01;;;;;;;;;57.75;39.25;;;;;4.29;71.39;102991.56;5078775;28;45484;-45
2022/01/11 10:55:30;;;;;;;;;53.25;42.25;;;;;4.44;70.89;102997.19;5078451;28;45403;-50
2022/01/11 10:57:58;;;;;;;;;58.25;45.00;;;;;4.51;70.64;103003.13;5077430;27;45754;-49
2022/01/11 11:00:25;;;;;;;;;52.75;45.50;;;;;4.56;70.42;103005.59;5078260;28;45341;-46
2022/01/11 11:02:59;;;;;;;;;60.50;43.00;;;;;4.46;70.38;102997.13;5078110;27;45444;-44
2022/01/11 11:05:30;;;;;;;;;62.50;44.25;;;;;4.37;70.48;103000.09;5078619;28;45447;-48
2022/01/11 11:07:57;;;;;;;;;49.75;39.00;;;;;4.25;70.83;102989.03;5078197;27;45386;-45
2022/01/11 11:10:39;;;;;;;;;59.75;45.00;;;;;4.24;70.70;103004.91;5077986;28;45366;-45
2022/01/11 11:13:08;;;;;;;;;52.50;36.75;;;;;4.21;71.36;103005.00;5077845;27;45483;-51
2022/01/11 11:15:39;;;;;;;;;53.75;41.75;;;;;4.18;70.75;102990.16;5078310;28;45389;-49
2022/01/11 11:18:07;;;;;;;;;41.00;34.00;;;;;4.23;70.62;103005.81;5110983;27;46004;-48